Time;durP1;ratioP1;P1;durP2;ratioP2;P2;SDS_P1;SDS_P2;PMS_P1;PMS_P2;Temp;Humidity;BMP_temperature;BMP_pressure;BME280_temperature;BME280_humidity;BME280_pressure;Samples;Min_cycle;Max_cycle;Signal;HPM_P1;HPM_P2
2022/03/10 00:02:23;;;;;;;9.63;6.82;;;18.80;36.60;;;;;;5054007;28;20063;-61
2022/03/10 00:04:49;;;;;;;7.97;6.50;;;18.80;36.60;;;;;;5053578;28;20021;-58
2022/03/10 00:07:14;;;;;;;7.68;6.50;;;18.80;36.60;;;;;;5053063;28;20032;-58
2022/03/10 00:09:41;;;;;;;9.57;6.70;;;18.80;36.60;;;;;;5053165;28;20092;-58
2022/03/10 00:12:07;;;;;;;7.45;6.65;;;18.80;36.60;;;;;;5034948;28;20164;-59
2022/03/10 00:14:32;;;;;;;8.40;6.80;;;18.80;36.60;;;;;;5053422;28;20025;-58
2022/03/10 00:16:58;;;;;;;7.78;6.22;;;18.80;36.60;;;;;;5052034;28;20021;-59
2022/03/10 00:19:25;;;;;;;9.70;6.32;;;18.80;36.60;;;;;;5053189;28;20097;-58
2022/03/10 00:21:51;;;;;;;7.75;6.70;;;18.80;36.60;;;;;;5052976;28;20017;-58
2022/03/10 00:24:20;;;;;;;6.95;6.25;;;18.80;36.70;;;;;;5052753;28;20017;-58
2022/03/10 00:26:46;;;;;;;7.72;6.68;;;18.80;36.60;;;;;;5051657;28;20487;-58
2022/03/10 00:29:15;;;;;;;7.43;6.70;;;18.80;36.70;;;;;;5052813;28;20067;-59
2022/03/10 00:31:41;;;;;;;7.82;6.60;;;18.80;36.60;;;;;;5052869;28;20009;-58
2022/03/10 00:34:07;;;;;;;7.70;6.90;;;18.80;36.70;;;;;;5053169;28;20025;-58
2022/03/10 00:36:33;;;;;;;8.73;6.57;;;18.80;36.60;;;;;;5053465;28;20039;-58
2022/03/10 00:38:59;;;;;;;9.32;6.45;;;18.80;36.70;;;;;;5051678;28;20028;-58
2022/03/10 00:41:24;;;;;;;7.28;6.57;;;18.70;36.70;;;;;;5052523;28;20489;-58
2022/03/10 00:43:50;;;;;;;8.68;6.75;;;18.80;36.70;;;;;;5053891;28;20116;-58
2022/03/10 00:46:17;;;;;;;9.63;6.60;;;18.70;36.70;;;;;;5056270;28;20043;-58
2022/03/10 00:48:42;;;;;;;8.50;7.03;;;18.70;36.70;;;;;;5055973;28;20010;-58
2022/03/10 00:51:08;;;;;;;8.45;7.13;;;18.70;36.70;;;;;;5056513;28;20475;-58
2022/03/10 00:53:34;;;;;;;7.75;6.70;;;18.70;36.70;;;;;;5055424;28;20013;-58
2022/03/10 00:56:00;;;;;;;8.80;6.95;;;18.70;36.80;;;;;;5055245;28;20540;-58
2022/03/10 00:58:26;;;;;;;8.15;7.20;;;18.70;36.70;;;;;;5054846;28;20059;-58
2022/03/10 01:00:52;;;;;;;7.50;6.65;;;18.70;36.70;;;;;;5055594;28;20207;-58
2022/03/10 01:03:18;;;;;;;9.68;7.45;;;18.70;36.70;;;;;;5055603;28;20127;-57
2022/03/10 01:05:45;;;;;;;7.78;6.75;;;18.70;36.70;;;;;;5056158;28;20025;-59
2022/03/10 01:08:10;;;;;;;7.60;6.70;;;18.70;36.70;;;;;;5054501;28;20368;-58
2022/03/10 01:10:36;;;;;;;8.27;6.47;;;18.70;36.70;;;;;;5055765;28;20479;-58
2022/03/10 01:13:02;;;;;;;8.25;7.00;;;18.60;36.70;;;;;;5055991;28;20034;-58
2022/03/10 01:15:28;;;;;;;8.07;6.82;;;18.70;36.80;;;;;;5056112;28;20029;-58
2022/03/10 01:17:54;;;;;;;10.05;7.13;;;18.60;36.70;;;;;;5054265;28;20417;-58
2022/03/10 01:20:21;;;;;;;9.77;6.90;;;18.70;36.70;;;;;;5055373;28;20021;-58
2022/03/10 01:22:48;;;;;;;9.38;7.20;;;18.60;36.70;;;;;;5055458;28;20127;-58
2022/03/10 01:25:13;;;;;;;8.75;6.57;;;18.60;36.80;;;;;;5055710;28;20095;-58
2022/03/10 01:27:40;;;;;;;10.32;7.40;;;18.60;36.70;;;;;;5055488;28;20069;-58
2022/03/10 01:30:06;;;;;;;8.27;7.10;;;18.60;36.70;;;;;;5054144;28;20099;-58
2022/03/10 01:32:33;;;;;;;7.72;6.70;;;18.60;36.70;;;;;;5055359;28;20083;-58
2022/03/10 01:35:00;;;;;;;7.32;6.63;;;18.60;36.80;;;;;;5054200;28;20009;-58
2022/03/10 01:37:25;;;;;;;8.77;7.25;;;18.60;36.70;;;;;;5055277;28;20023;-58
2022/03/10 01:39:52;;;;;;;7.85;7.00;;;18.60;36.70;;;;;;5055285;28;20013;-58
2022/03/10 01:42:18;;;;;;;8.88;7.28;;;18.60;36.70;;;;;;5054110;28;20045;-58
2022/03/10 01:44:44;;;;;;;7.57;6.78;;;18.60;36.80;;;;;;5055282;28;20491;-58
2022/03/10 01:47:10;;;;;;;9.18;7.07;;;18.60;36.70;;;;;;5054800;28;20033;-58
2022/03/10 01:49:37;;;;;;;7.97;6.88;;;18.60;36.70;;;;;;5054093;28;20048;-58
2022/03/10 01:52:03;;;;;;;8.57;6.50;;;18.60;36.70;;;;;;5053532;28;20017;-58
2022/03/10 01:54:28;;;;;;;8.50;6.97;;;18.60;36.80;;;;;;5054408;28;20024;-57
2022/03/10 01:56:54;;;;;;;8.75;7.30;;;18.60;36.70;;;;;;5036813;28;20383;-57
2022/03/10 01:59:20;;;;;;;7.85;7.15;;;18.60;36.70;;;;;;5054644;28;20530;-59
2022/03/10 02:01:46;;;;;;;9.57;7.30;;;18.60;36.80;;;;;;5053372;28;20009;-58
2022/03/10 02:04:12;;;;;;;8.68;6.70;;;18.60;36.80;;;;;;5053174;28;20025;-58
2022/03/10 02:06:38;;;;;;;8.55;6.97;;;18.60;36.80;;;;;;5053139;28;20029;-58
2022/03/10 02:11:48;;;;;;;8.73;6.80;;;18.50;36.70;;;;;;5054758;28;20395;-58
2022/03/10 02:19:43;;;;;;;8.07;7.20;;;18.60;36.70;;;;;;5054417;28;20063;-58
2022/03/10 02:22:13;;;;;;;12.15;6.95;;;18.50;36.70;;;;;;5054332;28;20162;-58
2022/03/10 02:24:40;;;;;;;10.30;6.93;;;18.50;36.70;;;;;;5054414;28;20033;-58
2022/03/10 02:27:16;;;;;;;9.57;7.53;;;18.50;36.70;;;;;;5053979;28;20479;-60
2022/03/10 02:29:43;;;;;;;9.13;7.32;;;18.50;36.70;;;;;;5054831;28;20028;-58
2022/03/10 02:32:09;;;;;;;7.72;6.80;;;18.50;36.70;;;;;;5054339;28;20037;-58
2022/03/10 02:34:36;;;;;;;9.95;7.53;;;18.50;36.70;;;;;;5054784;28;20155;-58
2022/03/10 02:37:04;;;;;;;8.48;6.97;;;18.50;36.70;;;;;;5054609;28;20467;-58
2022/03/10 02:39:30;;;;;;;9.98;7.00;;;18.50;36.70;;;;;;5053214;28;20021;-59
2022/03/10 02:41:56;;;;;;;7.90;7.10;;;18.50;37.30;;;;;;5054016;28;20112;-58
2022/03/10 02:44:22;;;;;;;8.73;7.70;;;18.50;36.70;;;;;;5052937;28;20044;-58
2022/03/10 02:46:47;;;;;;;9.50;6.85;;;18.50;36.70;;;;;;5054207;28;20029;-59
2022/03/10 02:49:13;;;;;;;10.00;7.28;;;18.50;36.70;;;;;;5052786;28;20458;-58
2022/03/10 02:51:39;;;;;;;9.10;7.15;;;18.50;36.80;;;;;;5054729;28;20395;-59
2022/03/10 02:54:05;;;;;;;10.00;6.97;;;18.40;36.70;;;;;;5055612;28;20506;-58
2022/03/10 02:56:31;;;;;;;8.38;7.40;;;18.40;36.70;;;;;;5054384;28;20448;-59
2022/03/10 02:58:57;;;;;;;7.75;6.60;;;18.40;36.70;;;;;;5037547;28;20081;-58
2022/03/10 03:01:23;;;;;;;9.07;6.80;;;18.40;36.70;;;;;;5053788;28;20017;-58
2022/03/10 03:03:49;;;;;;;8.27;7.13;;;18.40;36.70;;;;;;5052527;28;20378;-58
2022/03/10 03:06:15;;;;;;;8.85;7.15;;;18.40;36.70;;;;;;5052285;28;20036;-58
2022/03/10 03:08:41;;;;;;;8.27;7.00;;;18.40;36.80;;;;;;5052566;28;20033;-58
2022/03/10 03:11:07;;;;;;;7.85;7.05;;;18.40;36.70;;;;;;5053638;28;20471;-58
2022/03/10 03:13:34;;;;;;;9.93;7.20;;;18.40;36.70;;;;;;5053699;28;20009;-58
2022/03/10 03:16:00;;;;;;;7.25;6.28;;;18.40;36.80;;;;;;5053391;28;20005;-58
2022/03/10 03:18:26;;;;;;;7.82;7.03;;;18.40;36.80;;;;;;5053099;28;20025;-58
2022/03/10 03:20:52;;;;;;;8.88;7.05;;;18.30;36.70;;;;;;5054295;28;20024;-59
2022/03/10 03:23:18;;;;;;;7.93;7.13;;;18.30;36.70;;;;;;5055071;28;20028;-58
2022/03/10 03:25:44;;;;;;;9.07;7.50;;;18.30;36.80;;;;;;5056329;28;20479;-58
2022/03/10 03:28:10;;;;;;;7.70;6.93;;;18.30;36.80;;;;;;5056317;28;20128;-58
2022/03/10 03:30:35;;;;;;;8.30;6.93;;;18.30;36.80;;;;;;5038645;28;20517;-58
2022/03/10 03:33:01;;;;;;;7.93;7.13;;;18.30;36.80;;;;;;5055246;28;20489;-58
2022/03/10 03:35:27;;;;;;;9.20;7.00;;;18.30;36.80;;;;;;5052250;28;20387;-58
2022/03/10 03:37:54;;;;;;;9.18;7.00;;;18.30;36.80;;;;;;5051715;28;20025;-58
2022/03/10 03:40:20;;;;;;;7.47;6.78;;;18.30;36.80;;;;;;5052890;28;20024;-59
2022/03/10 03:42:46;;;;;;;7.72;6.70;;;18.30;36.90;;;;;;5051795;28;20032;-57
2022/03/10 03:45:12;;;;;;;8.60;7.32;;;18.30;36.90;;;;;;5052858;28;20021;-58
2022/03/10 03:47:38;;;;;;;8.45;7.30;;;18.30;36.90;;;;;;5053149;28;20041;-58
2022/03/10 03:50:04;;;;;;;7.80;7.00;;;18.30;36.90;;;;;;5052012;28;20056;-58
2022/03/10 03:52:30;;;;;;;10.90;7.47;;;18.30;36.80;;;;;;5053448;28;20025;-58
2022/03/10 03:54:57;;;;;;;8.90;7.30;;;18.30;36.80;;;;;;5052314;28;20021;-58
2022/03/10 03:57:22;;;;;;;7.50;6.80;;;18.40;36.90;;;;;;5053170;28;20021;-58
2022/03/10 03:59:48;;;;;;;9.48;6.93;;;18.30;36.90;;;;;;5051791;28;20066;-57
2022/03/10 04:02:14;;;;;;;9.93;7.35;;;18.30;36.90;;;;;;5054158;28;20017;-59
2022/03/10 04:04:39;;;;;;;8.75;7.20;;;18.30;36.90;;;;;;5053645;28;20507;-58
2022/03/10 04:07:06;;;;;;;8.05;7.25;;;18.30;36.90;;;;;;5054647;28;20051;-59
2022/03/10 04:09:31;;;;;;;8.57;7.47;;;18.30;36.90;;;;;;5053089;28;20029;-58
2022/03/10 04:11:57;;;;;;;10.98;7.07;;;18.30;36.90;;;;;;5051275;28;20028;-57
2022/03/10 04:14:23;;;;;;;7.80;6.63;;;18.20;36.90;;;;;;5052777;28;20009;-58
2022/03/10 04:16:49;;;;;;;7.68;6.90;;;18.30;37.00;;;;;;5052193;28;20020;-58
2022/03/10 04:19:15;;;;;;;10.13;7.22;;;18.30;36.90;;;;;;5056274;28;20540;-58
2022/03/10 04:21:41;;;;;;;9.27;7.47;;;18.20;36.90;;;;;;5056289;28;20108;-58
2022/03/10 04:24:07;;;;;;;8.18;7.07;;;18.20;37.00;;;;;;5057136;28;20024;-58
2022/03/10 04:26:35;;;;;;;8.20;7.03;;;18.20;36.90;;;;;;5056989;28;20024;-58
2022/03/10 04:29:01;;;;;;;8.10;6.70;;;18.20;36.90;;;;;;5056254;28;20518;-58
2022/03/10 04:31:27;;;;;;;7.88;6.88;;;18.20;37.00;;;;;;5055466;28;20034;-58
2022/03/10 04:33:53;;;;;;;8.65;6.72;;;18.20;37.00;;;;;;5056802;28;20017;-58
2022/03/10 04:36:18;;;;;;;7.78;6.97;;;18.20;37.00;;;;;;5055433;28;20471;-58
2022/03/10 04:38:45;;;;;;;8.48;6.68;;;18.20;37.00;;;;;;5056396;28;20475;-58
2022/03/10 04:41:11;;;;;;;10.27;7.05;;;18.20;37.00;;;;;;5056458;28;20055;-58
2022/03/10 04:43:38;;;;;;;8.45;7.18;;;18.20;37.00;;;;;;5056440;28;20067;-57
2022/03/10 04:46:04;;;;;;;7.93;7.13;;;18.20;36.90;;;;;;5056348;28;20013;-59
2022/03/10 04:48:30;;;;;;;10.30;7.20;;;18.20;36.90;;;;;;5055377;28;20033;-58
2022/03/10 04:50:56;;;;;;;8.63;7.13;;;18.30;36.70;;;;;;5056410;28;20371;-57
2022/03/10 04:53:22;;;;;;;11.68;7.70;;;18.50;36.50;;;;;;5055302;28;20024;-57
2022/03/10 04:55:48;;;;;;;10.13;7.18;;;18.50;36.40;;;;;;5055750;28;20014;-58
2022/03/10 04:58:14;;;;;;;8.30;6.97;;;18.60;36.40;;;;;;5055941;28;20487;-58
2022/03/10 05:00:40;;;;;;;8.35;7.45;;;18.60;36.40;;;;;;5055949;28;20024;-58
2022/03/10 05:03:06;;;;;;;10.65;7.70;;;18.60;36.30;;;;;;5056737;28;20013;-58
2022/03/10 05:05:32;;;;;;;8.30;7.50;;;18.50;36.30;;;;;;5058972;28;20025;-58
2022/03/10 05:07:58;;;;;;;11.68;7.53;;;18.50;36.40;;;;;;5055965;28;20028;-59
2022/03/10 05:10:23;;;;;;;9.00;7.43;;;18.50;36.40;;;;;;5056729;28;20092;-58
2022/03/10 05:12:52;;;;;;;8.40;7.50;;;18.60;36.30;;;;;;5056075;28;20021;-59
2022/03/10 05:15:21;;;;;;;8.25;7.07;;;18.60;36.20;;;;;;5055737;28;20013;-58
2022/03/10 05:17:48;;;;;;;9.43;7.37;;;18.60;36.10;;;;;;5056083;28;20017;-58
2022/03/10 05:20:14;;;;;;;8.48;7.18;;;18.70;36.10;;;;;;5054099;28;20056;-58
2022/03/10 05:22:53;;;;;;;8.52;7.05;;;18.70;36.00;;;;;;5055343;28;20491;-58
2022/03/10 05:25:20;;;;;;;7.50;6.70;;;18.70;36.00;;;;;;5055307;28;20597;-58
2022/03/10 05:27:47;;;;;;;9.55;7.07;;;18.80;35.90;;;;;;5055556;28;20037;-58
2022/03/10 05:30:13;;;;;;;7.55;6.50;;;18.80;35.80;;;;;;5055404;28;20571;-58
2022/03/10 05:32:39;;;;;;;9.52;7.13;;;18.80;35.70;;;;;;5056822;28;20503;-59
2022/03/10 05:35:06;;;;;;;8.25;6.80;;;18.90;35.60;;;;;;5056010;28;20024;-58
2022/03/10 05:37:33;;;;;;;10.55;6.80;;;19.00;35.60;;;;;;5054539;28;20036;-58
2022/03/10 05:40:00;;;;;;;7.47;6.75;;;19.00;35.50;;;;;;5054607;28;20467;-59
2022/03/10 05:42:27;;;;;;;7.25;6.55;;;19.00;35.50;;;;;;5055459;28;20043;-58
2022/03/10 05:44:52;;;;;;;7.75;6.60;;;19.10;35.40;;;;;;5053944;28;20017;-58
2022/03/10 05:47:18;;;;;;;11.73;6.95;;;19.10;35.30;;;;;;5055198;28;20032;-58
2022/03/10 05:49:44;;;;;;;8.38;6.38;;;19.20;35.30;;;;;;5053937;28;20075;-58
2022/03/10 05:52:11;;;;;;;7.93;6.85;;;19.20;35.20;;;;;;5055083;28;20092;-58
2022/03/10 05:54:37;;;;;;;7.05;6.35;;;19.20;35.10;;;;;;5054997;28;20093;-58
2022/03/10 05:57:04;;;;;;;7.78;6.80;;;19.30;35.00;;;;;;5054633;28;20525;-58
2022/03/10 05:59:30;;;;;;;7.72;6.78;;;19.30;34.90;;;;;;5053510;28;20033;-58
2022/03/10 06:01:56;;;;;;;8.60;6.93;;;19.30;34.80;;;;;;5053540;28;20021;-58
2022/03/10 06:04:22;;;;;;;7.22;6.40;;;19.40;34.80;;;;;;5053369;28;20025;-58
2022/03/10 06:06:48;;;;;;;7.30;6.60;;;19.40;34.70;;;;;;5053755;28;20104;-59
2022/03/10 06:09:14;;;;;;;9.18;6.80;;;19.50;34.70;;;;;;5054726;28;20021;-58
2022/03/10 06:11:40;;;;;;;9.10;6.55;;;19.50;34.60;;;;;;5036587;28;20361;-58
2022/03/10 06:14:06;;;;;;;7.93;7.13;;;19.60;34.60;;;;;;5054986;28;20017;-58
2022/03/10 06:16:31;;;;;;;7.30;6.55;;;19.60;34.50;;;;;;5054469;28;20013;-58
2022/03/10 06:18:58;;;;;;;6.95;6.35;;;19.60;34.40;;;;;;5054189;28;20025;-58
2022/03/10 06:21:24;;;;;;;8.18;6.45;;;19.70;34.30;;;;;;5054551;28;20029;-58
2022/03/10 06:23:50;;;;;;;7.43;6.20;;;19.70;34.90;;;;;;5054439;28;20398;-58
2022/03/10 06:26:15;;;;;;;7.18;6.25;;;19.80;34.20;;;;;;5054381;28;20489;-59
2022/03/10 06:28:41;;;;;;;8.40;6.88;;;19.80;34.10;;;;;;5054060;28;20045;-59
2022/03/10 06:31:07;;;;;;;8.43;6.45;;;19.80;34.10;;;;;;5053480;28;20017;-59
2022/03/10 06:33:35;;;;;;;6.78;6.07;;;19.90;34.10;;;;;;5054622;28;20013;-58
2022/03/10 06:36:00;;;;;;;8.68;6.10;;;19.80;34.00;;;;;;5056433;28;20020;-59
2022/03/10 06:38:26;;;;;;;8.00;6.80;;;19.90;34.00;;;;;;5056893;28;20460;-58
2022/03/10 06:40:52;;;;;;;7.22;6.50;;;20.00;34.00;;;;;;5056372;28;20036;-58
2022/03/10 06:43:19;;;;;;;7.88;6.40;;;20.00;33.90;;;;;;5053067;28;20557;-58
2022/03/10 06:45:45;;;;;;;9.45;6.13;;;20.00;33.90;;;;;;5053887;28;20048;-58
2022/03/10 06:48:11;;;;;;;7.60;6.40;;;20.00;33.80;;;;;;5054399;28;20025;-58
2022/03/10 06:50:37;;;;;;;8.73;5.90;;;20.10;33.80;;;;;;5054073;28;20020;-58
2022/03/10 06:53:03;;;;;;;7.93;6.00;;;20.10;33.70;;;;;;5035764;28;20017;-58
2022/03/10 06:55:29;;;;;;;6.53;5.93;;;20.10;33.70;;;;;;5051981;28;20104;-58
2022/03/10 06:57:55;;;;;;;7.05;6.15;;;20.10;33.70;;;;;;5053700;28;20072;-58
2022/03/10 07:00:21;;;;;;;8.50;6.22;;;20.20;33.60;;;;;;5053658;28;20021;-56
2022/03/10 07:02:48;;;;;;;8.38;6.22;;;20.20;33.60;;;;;;5053253;28;20446;-59
2022/03/10 07:05:14;;;;;;;9.35;6.70;;;20.20;33.50;;;;;;5054018;28;20010;-58
2022/03/10 07:07:39;;;;;;;7.97;6.38;;;20.20;33.60;;;;;;5051919;28;20078;-59
2022/03/10 07:10:06;;;;;;;10.35;6.38;;;20.20;33.50;;;;;;5035357;28;20016;-59
2022/03/10 07:12:36;;;;;;;6.28;5.68;;;20.30;33.50;;;;;;5053496;28;20100;-59
2022/03/10 07:15:03;;;;;;;6.85;6.15;;;20.30;33.40;;;;;;5052936;28;20009;-60
2022/03/10 07:17:29;;;;;;;6.60;5.90;;;20.30;33.40;;;;;;5050871;28;20067;-59
2022/03/10 07:19:55;;;;;;;6.57;5.90;;;20.30;33.40;;;;;;5050843;28;20021;-59
2022/03/10 07:22:21;;;;;;;13.52;7.80;;;20.40;33.50;;;;;;5049099;28;20078;-58
2022/03/10 07:24:47;;;;;;;20.55;9.00;;;20.40;33.20;;;;;;5049405;28;20163;-58
2022/03/10 07:27:13;;;;;;;23.83;11.45;;;20.40;33.90;;;;;;5049158;28;20219;-57
2022/03/10 07:29:39;;;;;;;27.33;13.02;;;20.50;33.50;;;;;;5051119;28;20024;-57
2022/03/10 07:32:05;;;;;;;20.42;14.20;;;20.70;33.50;;;;;;5050428;28;20017;-57
2022/03/10 07:34:31;;;;;;;24.98;14.50;;;20.80;33.50;;;;;;5050702;28;20111;-58
2022/03/10 07:36:57;;;;;;;26.55;15.25;;;20.90;33.10;;;;;;5050517;28;20367;-58
2022/03/10 07:39:23;;;;;;;29.98;15.90;;;21.00;33.00;;;;;;5050859;28;20020;-58
2022/03/10 07:41:49;;;;;;;28.05;16.67;;;21.00;33.20;;;;;;5050761;28;20013;-58
2022/03/10 07:44:15;;;;;;;30.73;16.45;;;21.10;33.40;;;;;;5050795;28;20093;-58
2022/03/10 07:46:40;;;;;;;31.42;15.90;;;21.10;32.60;;;;;;5051075;28;20025;-57
2022/03/10 07:49:08;;;;;;;26.40;16.55;;;21.10;32.80;;;;;;5050626;28;20018;-57
2022/03/10 07:51:34;;;;;;;31.13;16.67;;;21.10;32.50;;;;;;5049006;28;20009;-56
2022/03/10 07:54:00;;;;;;;27.67;16.58;;;21.20;32.30;;;;;;5048662;28;20028;-58
2022/03/10 07:56:26;;;;;;;25.55;16.85;;;21.20;32.00;;;;;;5050265;28;20045;-56
2022/03/10 07:58:53;;;;;;;20.98;15.57;;;21.30;31.80;;;;;;5050635;28;20139;-58
2022/03/10 08:01:19;;;;;;;19.70;16.05;;;21.40;31.80;;;;;;5050431;28;20067;-57
2022/03/10 08:03:47;;;;;;;31.58;16.30;;;21.40;31.70;;;;;;5065354;28;20036;-59
2022/03/10 08:06:14;;;;;;;24.98;17.05;;;21.40;32.40;;;;;;5050354;28;20013;-57
2022/03/10 08:08:46;;;;;;;23.88;15.43;;;21.40;31.70;;;;;;5050477;28;20510;-58
2022/03/10 08:11:16;;;;;;;30.45;16.63;;;21.50;32.00;;;;;;5049961;28;20101;-57
2022/03/10 08:13:41;;;;;;;32.05;16.52;;;21.50;31.90;;;;;;5048437;28;20024;-58
2022/03/10 08:16:07;;;;;;;27.27;16.30;;;21.50;32.00;;;;;;5048957;28;20028;-55
2022/03/10 08:18:33;;;;;;;42.63;16.38;;;21.50;31.90;;;;;;5048875;28;20063;-56
2022/03/10 08:21:00;;;;;;;30.52;15.60;;;21.50;32.30;;;;;;5050428;28;20018;-56
2022/03/10 08:23:27;;;;;;;29.85;15.75;;;21.50;32.20;;;;;;5050722;28;20166;-57
2022/03/10 08:25:52;;;;;;;36.88;15.75;;;21.50;32.00;;;;;;5049295;28;20020;-57
2022/03/10 08:28:18;;;;;;;22.45;15.00;;;21.50;31.70;;;;;;5050929;28;20045;-57
2022/03/10 08:30:44;;;;;;;28.27;15.50;;;21.50;31.50;;;;;;5050796;28;20025;-57
2022/03/10 08:33:12;;;;;;;22.70;15.60;;;21.60;31.30;;;;;;5050590;28;20040;-57
2022/03/10 08:35:38;;;;;;;28.77;15.43;;;21.60;31.20;;;;;;5049259;28;20493;-56
2022/03/10 08:38:04;;;;;;;35.92;15.77;;;21.60;31.20;;;;;;5050587;28;20017;-57
2022/03/10 08:40:30;;;;;;;25.75;15.13;;;21.60;31.20;;;;;;5051167;28;20017;-58
2022/03/10 08:42:56;;;;;;;35.80;15.70;;;21.60;31.20;;;;;;5049144;28;20032;-53
2022/03/10 08:45:25;;;;;;;27.42;15.13;;;21.60;31.20;;;;;;5049229;28;20471;-54
2022/03/10 08:47:51;;;;;;;21.17;15.43;;;21.60;31.10;;;;;;5050960;28;20028;-57
2022/03/10 08:50:17;;;;;;;19.08;15.07;;;21.60;31.20;;;;;;5050152;28;20025;-56
2022/03/10 08:52:42;;;;;;;24.83;15.32;;;21.60;31.20;;;;;;5050478;28;20020;-56
2022/03/10 08:55:10;;;;;;;23.92;15.57;;;21.60;31.40;;;;;;5050910;28;20040;-56
2022/03/10 08:57:36;;;;;;;21.95;14.45;;;21.60;31.40;;;;;;5049460;28;20059;-56
2022/03/10 09:00:06;;;;;;;25.67;15.07;;;21.60;31.70;;;;;;5048832;28;20470;-57
2022/03/10 09:02:33;;;;;;;27.58;15.07;;;21.40;32.30;;;;;;5048764;28;20467;-57
2022/03/10 09:04:58;;;;;;;21.95;13.45;;;21.20;32.60;;;;;;5052050;28;20021;-57
2022/03/10 09:07:25;;;;;;;18.75;12.80;;;21.20;32.60;;;;;;5053929;28;20055;-56
2022/03/10 09:09:51;;;;;;;35.53;13.88;;;21.10;32.60;;;;;;5053312;28;20158;-57
2022/03/10 09:12:17;;;;;;;19.02;11.90;;;21.10;32.80;;;;;;5052872;28;20017;-57
2022/03/10 09:14:43;;;;;;;18.73;12.02;;;21.10;32.80;;;;;;5053757;28;20136;-56
2022/03/10 09:17:13;;;;;;;16.75;11.23;;;21.20;32.80;;;;;;5053525;28;20017;-56
2022/03/10 09:19:39;;;;;;;19.58;11.15;;;21.20;32.80;;;;;;5052846;28;20024;-57
2022/03/10 09:22:05;;;;;;;20.13;10.65;;;21.20;32.80;;;;;;5053033;28;20086;-57
2022/03/10 09:24:31;;;;;;;16.83;9.77;;;21.20;32.70;;;;;;5036487;28;20029;-58
2022/03/10 09:26:57;;;;;;;19.38;9.68;;;21.20;32.80;;;;;;5054598;28;20029;-55
2022/03/10 09:29:25;;;;;;;14.07;9.43;;;21.20;32.80;;;;;;5053099;28;20552;-55
2022/03/10 09:31:54;;;;;;;17.73;8.75;;;21.20;32.80;;;;;;5052980;28;20044;-57
2022/03/10 09:34:20;;;;;;;13.27;8.40;;;21.20;32.80;;;;;;5052219;28;20115;-56
2022/03/10 09:36:46;;;;;;;14.25;8.63;;;21.20;32.80;;;;;;5051986;28;20463;-56
2022/03/10 09:39:13;;;;;;;10.45;7.78;;;21.20;32.90;;;;;;5053219;28;20014;-57
2022/03/10 09:41:39;;;;;;;15.38;7.53;;;21.30;32.90;;;;;;5052879;28;20037;-56
2022/03/10 09:44:13;;;;;;;13.27;7.35;;;21.30;32.80;;;;;;5053292;28;20021;-57
2022/03/10 09:46:39;;;;;;;13.38;7.55;;;21.20;32.90;;;;;;5053056;28;20019;-57
2022/03/10 09:49:04;;;;;;;12.50;7.47;;;21.30;32.90;;;;;;5054128;28;20108;-56
2022/03/10 09:51:30;;;;;;;12.73;6.63;;;21.30;33.00;;;;;;5052762;28;20024;-56
2022/03/10 09:53:56;;;;;;;11.98;6.60;;;21.30;32.90;;;;;;5053955;28;20066;-56
2022/03/10 09:56:22;;;;;;;10.63;5.88;;;21.30;32.90;;;;;;5052098;28;20138;-56
2022/03/10 09:58:48;;;;;;;10.98;6.70;;;21.30;32.90;;;;;;5052365;28;20067;-56
2022/03/10 10:01:13;;;;;;;11.38;6.47;;;21.40;32.90;;;;;;5053504;28;20028;-55
2022/03/10 10:03:39;;;;;;;12.98;6.10;;;21.30;32.90;;;;;;5053161;28;20036;-57
2022/03/10 10:06:05;;;;;;;8.38;5.85;;;21.30;33.00;;;;;;5052563;28;20024;-56
2022/03/10 10:08:32;;;;;;;11.52;6.57;;;21.30;33.10;;;;;;5052797;28;20494;-57
2022/03/10 10:11:00;;;;;;;17.25;8.68;;;21.30;33.10;;;;;;5051296;28;20017;-56
2022/03/10 10:13:43;;;;;;;17.58;9.82;;;21.20;33.80;;;;;;5052661;28;20376;-54
2022/03/10 10:16:14;;;;;;;19.83;10.02;;;21.30;34.20;;;;;;5052324;28;20028;-53
2022/03/10 10:18:40;;;;;;;46.38;13.50;;;21.30;34.90;;;;;;5053326;28;20025;-56
2022/03/10 10:21:06;;;;;;;26.20;10.88;;;21.40;34.30;;;;;;5053381;28;20024;-54
2022/03/10 10:23:33;;;;;;;24.95;11.60;;;21.40;34.20;;;;;;5053337;28;20158;-54
2022/03/10 10:26:02;;;;;;;24.00;11.23;;;21.50;33.70;;;;;;5053031;28;20502;-55
2022/03/10 10:28:31;;;;;;;21.13;10.85;;;21.50;33.70;;;;;;5052605;28;20147;-54
2022/03/10 10:31:04;;;;;;;23.20;10.73;;;21.50;34.50;;;;;;5068125;28;20048;-53
2022/03/10 10:33:32;;;;;;;24.60;10.45;;;21.50;34.30;;;;;;5052710;28;20012;-56
2022/03/10 10:36:26;;;;;;;21.00;11.20;;;21.50;35.10;;;;;;5053392;28;20037;-57
2022/03/10 10:39:07;;;;;;;16.00;10.30;;;21.50;34.80;;;;;;5051116;28;20041;-51
2022/03/10 10:41:33;;;;;;;19.52;9.98;;;21.50;33.80;;;;;;5055358;28;20013;-54
2022/03/10 10:44:00;;;;;;;18.38;10.23;;;21.60;35.10;;;;;;5053267;28;20021;-55
2022/03/10 10:46:28;;;;;;;22.05;9.75;;;21.50;35.10;;;;;;5053766;28;20016;-51
2022/03/10 10:48:58;;;;;;;16.00;9.73;;;21.50;33.70;;;;;;5053400;28;20033;-49
2022/03/10 10:51:29;;;;;;;17.15;10.40;;;21.50;33.60;;;;;;5052766;28;20078;-55
2022/03/10 10:53:59;;;;;;;17.20;10.25;;;21.50;34.80;;;;;;5052738;28;20013;-54
2022/03/10 10:56:29;;;;;;;21.63;9.35;;;21.50;33.70;;;;;;5052797;28;20015;-53
2022/03/10 10:58:55;;;;;;;18.65;9.05;;;21.60;33.40;;;;;;5053689;28;20066;-52
2022/03/10 11:01:32;;;;;;;16.75;9.40;;;21.60;33.50;;;;;;5053796;28;20013;-51
2022/03/10 11:03:57;;;;;;;20.58;9.38;;;21.50;33.20;;;;;;5053113;28;20017;-53
2022/03/10 11:06:24;;;;;;;15.13;8.98;;;21.30;33.40;;;;;;5051787;28;20382;-54
2022/03/10 11:08:50;;;;;;;22.85;8.60;;;21.20;33.50;;;;;;5052999;28;20135;-53
2022/03/10 11:11:16;;;;;;;17.85;8.90;;;21.20;33.50;;;;;;5053459;28;20100;-54
2022/03/10 11:13:42;;;;;;;18.55;8.93;;;21.20;33.40;;;;;;5052874;28;20017;-52
2022/03/10 11:16:08;;;;;;;16.67;7.93;;;21.30;33.30;;;;;;5051860;28;20013;-53
2022/03/10 11:18:37;;;;;;;14.27;7.47;;;21.30;33.30;;;;;;5052934;28;20765;-53
2022/03/10 11:21:17;;;;;;;18.05;7.43;;;21.30;33.20;;;;;;5052662;28;20020;-49
2022/03/10 11:24:10;;;;;;;14.02;7.55;;;21.30;33.20;;;;;;5052706;28;20025;-53
2022/03/10 11:26:45;;;;;;;10.48;6.95;;;21.30;33.10;;;;;;5068367;28;20431;-51
2022/03/10 11:29:11;;;;;;;18.67;7.75;;;21.40;33.10;;;;;;5051831;28;20132;-53
2022/03/10 11:31:37;;;;;;;13.80;6.47;;;21.40;32.90;;;;;;5053611;28;20059;-53
2022/03/10 11:34:03;;;;;;;13.30;6.80;;;21.40;32.90;;;;;;5051916;28;20079;-51
2022/03/10 11:36:30;;;;;;;9.07;6.25;;;21.40;32.90;;;;;;5051298;28;20090;-53
2022/03/10 11:38:56;;;;;;;10.80;6.18;;;21.40;32.90;;;;;;5051267;28;20439;-51
2022/03/10 11:41:41;;;;;;;14.77;6.97;;;21.40;32.80;;;;;;5052869;28;20025;-52
2022/03/10 11:44:08;;;;;;;10.43;6.90;;;21.40;32.70;;;;;;5050926;28;20055;-53
2022/03/10 11:46:36;;;;;;;11.88;7.38;;;21.40;32.70;;;;;;5052057;28;20055;-53
2022/03/10 11:49:12;;;;;;;14.32;6.90;;;21.50;32.60;;;;;;5052217;28;20391;-53
2022/03/10 11:51:52;;;;;;;15.43;7.85;;;21.50;32.40;;;;;;5050999;28;20025;-51
2022/03/10 11:54:19;;;;;;;13.93;7.70;;;21.40;32.50;;;;;;5051804;28;20024;-52
2022/03/10 11:56:44;;;;;;;13.93;7.03;;;21.50;32.50;;;;;;5051744;28;20013;-52
2022/03/10 11:59:24;;;;;;;9.82;6.35;;;21.50;32.50;;;;;;5051570;28;20017;-51
2022/03/10 12:01:50;;;;;;;10.40;6.72;;;21.40;32.60;;;;;;5051748;28;20024;-51
2022/03/10 12:04:18;;;;;;;12.35;5.97;;;21.40;32.40;;;;;;5050614;28;20009;-50
2022/03/10 12:06:48;;;;;;;10.20;6.70;;;21.40;32.50;;;;;;5051266;28;20024;-51
2022/03/10 12:09:25;;;;;;;14.90;6.97;;;21.40;32.40;;;;;;5050066;28;20108;-53
2022/03/10 12:11:52;;;;;;;14.73;6.80;;;21.40;32.30;;;;;;5051629;28;20490;-54
2022/03/10 12:14:27;;;;;;;11.07;6.72;;;21.40;32.30;;;;;;5051246;28;20520;-49
2022/03/10 12:16:53;;;;;;;14.27;7.07;;;21.40;32.30;;;;;;5048937;28;20013;-52
2022/03/10 12:19:19;;;;;;;11.88;6.80;;;21.40;32.10;;;;;;5065616;22;20052;-75
2022/03/10 12:21:44;;;;;;;11.43;6.60;;;21.50;32.00;;;;;;5036376;28;20543;-78
2022/03/10 12:24:11;;;;;;;10.05;6.75;;;21.50;32.10;;;;;;5052630;28;20017;-76
2022/03/10 12:26:39;;;;;;;10.13;6.55;;;21.50;32.20;;;;;;5052879;28;20108;-76
2022/03/10 12:29:10;;;;;;;10.93;6.57;;;21.40;32.20;;;;;;5036715;28;20120;-76
2022/03/10 12:31:36;;;;;;;10.18;6.13;;;21.50;32.20;;;;;;5035854;28;20021;-74
2022/03/10 12:34:06;;;;;;;10.45;6.20;;;21.50;32.20;;;;;;5049694;28;20056;-74
2022/03/10 12:36:41;;;;;;;9.20;6.07;;;21.50;32.20;;;;;;5048723;28;20021;-74
2022/03/10 12:39:12;;;;;;;11.32;6.40;;;21.60;32.10;;;;;;5050023;28;20025;-76
2022/03/10 12:41:50;;;;;;;;;;;21.60;32.10;;;;;;5056454;28;20441;-75
2022/03/10 12:44:34;;;;;;;25.75;10.88;;;21.60;32.40;;;;;;5054476;28;19955;-76
2022/03/10 12:47:01;;;;;;;33.83;11.90;;;21.60;33.30;;;;;;5056944;28;20109;-77
2022/03/10 12:49:38;;;;;;;20.60;10.80;;;21.70;34.50;;;;;;5061029;28;20025;-77